Time;durP1;ratioP1;P1;durP2;ratioP2;P2;SDS_P1;SDS_P2;PMS_P1;PMS_P2;Temp;Humidity;BMP_temperature;BMP_pressure;BME280_temperature;BME280_humidity;BME280_pressure;Samples;Min_cycle;Max_cycle;Signal;HPM_P1;HPM_P2
2022/10/24 02:47:28;;;;;;;11.20;1.40;;;17.70;95.60;;;;;;5324416;23;88065;-85
2022/10/24 02:49:54;;;;;;;8.45;1.15;;;17.60;95.90;;;;;;4886237;28;86267;-84
2022/10/24 02:52:22;;;;;;;10.55;1.10;;;17.60;96.10;;;;;;4885323;28;87795;-85
2022/10/24 02:54:48;;;;;;;9.52;1.13;;;17.60;96.50;;;;;;4886785;28;87301;-85
2022/10/24 02:57:14;;;;;;;9.35;1.42;;;17.50;96.80;;;;;;4882036;28;86276;-83
2022/10/24 02:59:40;;;;;;;10.73;1.33;;;17.50;97.30;;;;;;4882355;28;86155;-83
2022/10/24 03:02:06;;;;;;;12.40;1.25;;;17.40;97.50;;;;;;4874809;29;86714;-83
2022/10/24 03:04:31;;;;;;;13.00;1.40;;;17.40;97.90;;;;;;4868893;28;87388;-83
2022/10/24 03:06:57;;;;;;;10.48;1.35;;;17.30;98.10;;;;;;4871343;28;86921;-84
2022/10/24 03:09:23;;;;;;;8.93;1.27;;;17.40;98.20;;;;;;4887887;28;86252;-85
2022/10/24 03:11:49;;;;;;;9.32;1.17;;;17.30;98.00;;;;;;4887563;28;87691;-85
2022/10/24 03:14:15;;;;;;;8.30;0.88;;;17.30;98.10;;;;;;4886798;28;86444;-83
2022/10/24 03:16:40;;;;;;;10.88;1.38;;;17.40;97.80;;;;;;4885042;28;86278;-82
2022/10/24 03:19:06;;;;;;;7.47;0.85;;;17.30;97.70;;;;;;4867173;29;86915;-82
2022/10/24 03:21:32;;;;;;;9.82;1.35;;;17.40;97.30;;;;;;4877635;28;87847;-83
2022/10/24 03:23:57;;;;;;;8.10;1.00;;;17.40;97.20;;;;;;4870525;28;86947;-82
2022/10/24 03:26:23;;;;;;;10.95;1.00;;;17.40;96.90;;;;;;4867221;29;86596;-83
2022/10/24 03:28:49;;;;;;;12.98;0.90;;;17.50;96.80;;;;;;4881725;28;86614;-83
2022/10/24 03:31:14;;;;;;;8.60;1.35;;;17.50;97.00;;;;;;4885584;28;88386;-86
2022/10/24 03:33:40;;;;;;;9.60;1.05;;;17.50;96.80;;;;;;4872690;28;87434;-88
2022/10/24 03:36:06;;;;;;;8.38;1.10;;;17.50;96.60;;;;;;4886524;28;86165;-88
2022/10/24 03:38:32;;;;;;;8.50;1.17;;;17.50;96.30;;;;;;4880542;28;86875;-88
2022/10/24 03:40:57;;;;;;;6.07;1.05;;;17.60;96.10;;;;;;4870160;28;87808;-88
2022/10/24 03:43:23;;;;;;;8.48;1.00;;;17.60;95.10;;;;;;4871325;28;90483;-85
2022/10/24 03:45:49;;;;;;;8.35;0.80;;;17.70;95.00;;;;;;4878657;28;86614;-87
2022/10/24 03:48:15;;;;;;;9.55;0.73;;;17.70;94.60;;;;;;4859568;29;85759;-86
2022/10/24 03:50:40;;;;;;;8.02;0.98;;;17.80;94.40;;;;;;4864977;29;87809;-85
2022/10/24 03:53:06;;;;;;;10.35;0.77;;;17.90;94.30;;;;;;4863413;28;87422;-87
2022/10/24 03:55:32;;;;;;;10.02;1.08;;;17.90;94.50;;;;;;4849832;29;87131;-86
2022/10/24 03:57:58;;;;;;;8.05;0.95;;;17.90;94.30;;;;;;4848418;29;86256;-90
2022/10/24 04:00:26;;;;;;;8.80;1.05;;;17.90;94.70;;;;;;4846757;29;90619;-87
2022/10/24 04:02:52;;;;;;;7.28;0.90;;;17.90;94.60;;;;;;4869175;28;90605;-87
2022/10/24 04:05:18;;;;;;;11.55;1.00;;;17.90;94.80;;;;;;4849708;29;86210;-90
2022/10/24 04:07:44;;;;;;;10.27;1.15;;;17.90;94.70;;;;;;4856332;28;86356;-90
2022/10/24 04:10:10;;;;;;;11.70;1.48;;;17.90;94.80;;;;;;4864871;29;90671;-89
2022/10/24 04:12:35;;;;;;;12.18;1.10;;;17.90;95.00;;;;;;4849684;29;89532;-91
2022/10/24 04:15:01;;;;;;;8.68;0.95;;;17.80;95.10;;;;;;4850375;29;86341;-85
2022/10/24 04:17:28;;;;;;;5.70;0.93;;;17.80;95.10;;;;;;4863211;28;86787;-85
2022/10/24 04:19:53;;;;;;;8.88;1.17;;;17.80;95.50;;;;;;4864416;29;88025;-86
2022/10/24 04:22:19;;;;;;;7.32;1.20;;;17.80;95.60;;;;;;4860993;29;87280;-85
2022/10/24 04:24:45;;;;;;;9.60;1.05;;;17.80;95.40;;;;;;4849091;29;86337;-86
2022/10/24 04:27:10;;;;;;;6.38;0.80;;;17.80;95.50;;;;;;4854968;29;86521;-87
2022/10/24 04:29:36;;;;;;;6.93;0.60;;;17.80;95.20;;;;;;4847201;29;87839;-86
2022/10/24 04:32:02;;;;;;;7.53;1.00;;;17.80;95.40;;;;;;4861106;29;87214;-88
2022/10/24 04:34:28;;;;;;;9.00;1.20;;;17.90;95.30;;;;;;4859120;29;86893;-89
2022/10/24 04:36:54;;;;;;;5.43;0.73;;;17.80;95.30;;;;;;4856602;29;85999;-90
2022/10/24 04:39:20;;;;;;;8.40;1.10;;;17.80;95.00;;;;;;4855076;29;87689;-90
2022/10/24 04:41:45;;;;;;;12.55;1.52;;;17.80;95.60;;;;;;4871096;28;90648;-89
2022/10/24 04:44:11;;;;;;;11.85;1.40;;;17.80;96.20;;;;;;4861493;29;87284;-89
2022/10/24 04:46:37;;;;;;;8.68;1.08;;;17.80;95.90;;;;;;4863403;28;86347;-90
2022/10/24 04:49:03;;;;;;;12.23;1.80;;;17.80;96.30;;;;;;4884666;28;91253;-88
2022/10/24 04:51:30;;;;;;;9.15;1.52;;;17.70;96.20;;;;;;4875600;28;89795;-88
2022/10/24 04:53:55;;;;;;;8.27;2.25;;;17.70;96.40;;;;;;4866799;29;86117;-84
2022/10/24 04:56:21;;;;;;;13.30;1.80;;;17.70;96.70;;;;;;4871254;28;86432;-89
2022/10/24 04:58:47;;;;;;;11.93;1.80;;;17.60;97.00;;;;;;4866406;29;90949;-91
2022/10/24 05:01:13;;;;;;;11.18;1.95;;;17.60;97.40;;;;;;4864174;28;90644;-90
2022/10/24 05:03:38;;;;;;;13.10;2.17;;;17.50;97.80;;;;;;4867229;29;86899;-92
2022/10/24 05:06:05;;;;;;;9.27;1.70;;;17.40;98.20;;;;;;4887076;28;86307;-92
2022/10/24 05:08:30;;;;;;;9.90;1.65;;;17.40;98.30;;;;;;4877646;29;91947;-92
2022/10/24 05:10:56;;;;;;;9.38;1.40;;;17.40;98.40;;;;;;4864866;29;88251;-91
2022/10/24 05:13:21;;;;;;;8.30;2.03;;;17.40;98.50;;;;;;4889334;23;86828;-76
2022/10/24 05:15:47;;;;;;;8.55;1.25;;;17.50;98.50;;;;;;4895788;28;88499;-77
2022/10/24 05:18:13;;;;;;;8.13;1.58;;;17.50;98.80;;;;;;4895306;28;86853;-74
2022/10/24 05:20:39;;;;;;;9.63;1.30;;;17.30;98.80;;;;;;4891967;28;86527;-76
2022/10/24 05:23:04;;;;;;;8.43;1.30;;;17.30;99.00;;;;;;4894799;28;86268;-76
2022/10/24 05:25:30;;;;;;;8.07;1.30;;;17.30;99.10;;;;;;4900283;28;85537;-78
2022/10/24 05:27:55;;;;;;;9.80;1.90;;;17.30;99.20;;;;;;4892364;28;87135;-76
2022/10/24 05:30:21;;;;;;;10.40;1.45;;;17.30;99.30;;;;;;4898702;28;87214;-77
2022/10/24 05:32:47;;;;;;;11.73;2.22;;;17.30;99.70;;;;;;4898929;28;87153;-76
2022/10/24 05:35:13;;;;;;;10.07;1.83;;;17.20;99.90;;;;;;4895137;28;86380;-75
2022/10/24 05:37:38;;;;;;;9.02;1.55;;;17.10;99.90;;;;;;4895291;28;88453;-77
2022/10/24 05:40:09;;;;;;;11.88;1.60;;;17.00;99.90;;;;;;4899722;28;86588;-74
2022/10/24 05:42:37;;;;;;;10.35;1.45;;;16.90;99.90;;;;;;4900289;28;86344;-74
2022/10/24 05:45:04;;;;;;;10.20;1.27;;;16.80;99.90;;;;;;4898625;28;86970;-77
2022/10/24 05:47:30;;;;;;;7.45;1.13;;;16.80;99.90;;;;;;4888110;28;87315;-77
2022/10/24 05:49:55;;;;;;;8.35;1.52;;;16.80;99.90;;;;;;4888824;28;87317;-77
2022/10/24 05:52:21;;;;;;;18.65;4.28;;;16.80;99.90;;;;;;4883519;28;86329;-76
2022/10/24 05:54:47;;;;;;;16.35;4.72;;;16.90;99.90;;;;;;4891487;28;86563;-76
2022/10/24 05:57:12;;;;;;;11.73;3.50;;;16.90;99.90;;;;;;4880365;28;88191;-77
2022/10/24 05:59:38;;;;;;;16.52;3.45;;;16.90;99.90;;;;;;4884611;28;87188;-77
2022/10/24 06:02:04;;;;;;;13.25;3.38;;;16.90;99.90;;;;;;4885830;28;87126;-75
2022/10/24 06:04:29;;;;;;;13.18;2.95;;;16.90;99.90;;;;;;4884563;28;86717;-75
2022/10/24 06:06:55;;;;;;;14.35;3.10;;;16.90;99.90;;;;;;4880777;28;87099;-77
2022/10/24 06:09:20;;;;;;;10.57;1.42;;;16.90;99.90;;;;;;4884357;28;86952;-76
2022/10/24 06:11:46;;;;;;;9.88;1.60;;;16.90;99.90;;;;;;4884418;28;86253;-77
2022/10/24 06:14:12;;;;;;;10.60;1.60;;;16.90;99.90;;;;;;4884911;28;85921;-77
2022/10/24 06:16:38;;;;;;;396.45;19.33;;;17.00;99.90;;;;;;4883039;28;87284;-77
2022/10/24 06:19:04;;;;;;;50.55;5.65;;;17.00;99.90;;;;;;4884925;28;87117;-77
2022/10/24 06:21:30;;;;;;;154.73;11.68;;;17.00;99.90;;;;;;4886310;28;88747;-76
2022/10/24 06:23:56;;;;;;;20.48;3.30;;;17.10;99.90;;;;;;4893704;28;87026;-77
2022/10/24 06:26:22;;;;;;;12.20;2.70;;;17.10;99.90;;;;;;4881404;28;87245;-76
2022/10/24 06:28:47;;;;;;;8.82;1.42;;;17.10;99.90;;;;;;4883113;28;86436;-75
2022/10/24 06:31:13;;;;;;;25.20;2.50;;;17.10;99.90;;;;;;4882797;28;86898;-79
2022/10/24 06:33:39;;;;;;;49.10;4.80;;;17.20;99.90;;;;;;4891136;28;86339;-75
2022/10/24 06:36:08;;;;;;;41.95;4.20;;;17.20;99.90;;;;;;4878981;28;87246;-76
2022/10/24 06:38:35;;;;;;;62.88;4.45;;;17.20;99.90;;;;;;4880837;28;86292;-78
2022/10/24 06:41:08;;;;;;;44.42;3.30;;;17.10;99.90;;;;;;4880858;28;86813;-77
2022/10/24 06:43:34;;;;;;;46.47;3.80;;;17.00;99.90;;;;;;4880839;28;86637;-78
2022/10/24 06:46:05;;;;;;;12.10;2.45;;;16.90;99.90;;;;;;4878424;28;88585;-76
2022/10/24 06:48:31;;;;;;;14.98;2.63;;;16.80;99.90;;;;;;4880209;28;88022;-77
2022/10/24 06:50:57;;;;;;;11.63;2.05;;;16.80;99.90;;;;;;4881725;28;86272;-77
2022/10/24 06:53:23;;;;;;;12.30;1.77;;;16.70;99.90;;;;;;4879517;28;86383;-76
2022/10/24 06:55:48;;;;;;;10.70;1.77;;;16.70;99.90;;;;;;4880584;28;87233;-77
2022/10/24 06:58:14;;;;;;;37.58;3.35;;;16.70;99.90;;;;;;4880083;28;86860;-78
2022/10/24 07:00:40;;;;;;;8.40;1.92;;;16.70;99.90;;;;;;4881880;28;86654;-77
2022/10/24 07:03:05;;;;;;;35.83;3.10;;;16.60;99.90;;;;;;4883683;28;86030;-78
2022/10/24 07:05:31;;;;;;;13.07;2.08;;;16.50;99.90;;;;;;4880494;28;87576;-77
2022/10/24 07:07:56;;;;;;;9.80;1.50;;;16.60;99.90;;;;;;4889593;28;86981;-77
2022/10/24 07:10:22;;;;;;;13.38;2.97;;;16.70;99.90;;;;;;4879212;28;87851;-76
2022/10/24 07:12:48;;;;;;;17.63;3.60;;;16.70;99.90;;;;;;4883726;28;86859;-77
2022/10/24 07:15:13;;;;;;;17.50;3.38;;;16.80;99.90;;;;;;4879419;28;86818;-78
2022/10/24 07:17:44;;;;;;;13.77;2.55;;;16.90;99.90;;;;;;4891490;28;86358;-77
2022/10/24 07:20:11;;;;;;;14.13;2.50;;;16.90;99.90;;;;;;4889493;28;86350;-76
2022/10/24 07:22:37;;;;;;;9.93;2.53;;;16.90;99.90;;;;;;4896054;28;86260;-76
2022/10/24 07:25:04;;;;;;;14.27;4.25;;;17.00;99.90;;;;;;4889482;28;87184;-77
2022/10/24 07:27:31;;;;;;;14.02;3.65;;;17.00;99.90;;;;;;4879165;28;86294;-75
2022/10/24 07:29:57;;;;;;;13.30;3.75;;;17.10;99.90;;;;;;4892365;28;87035;-77
2022/10/24 07:32:22;;;;;;;11.55;3.30;;;17.00;99.90;;;;;;4896020;28;86274;-77
2022/10/24 07:34:48;;;;;;;13.65;3.10;;;17.00;99.90;;;;;;4882760;28;87897;-75
2022/10/24 07:37:15;;;;;;;11.65;2.67;;;16.90;99.90;;;;;;4878449;28;88434;-75
2022/10/24 07:39:42;;;;;;;14.68;3.33;;;16.90;99.90;;;;;;4881347;28;86333;-75
2022/10/24 07:42:09;;;;;;;11.35;2.40;;;16.90;99.90;;;;;;4881817;28;86831;-78
2022/10/24 07:44:35;;;;;;;9.73;2.30;;;16.90;99.90;;;;;;4881005;28;87219;-76
2022/10/24 07:47:05;;;;;;;10.10;2.30;;;16.90;99.90;;;;;;4877516;28;87080;-76
2022/10/24 07:49:31;;;;;;;12.65;2.45;;;16.90;99.90;;;;;;4883831;28;86195;-75
2022/10/24 07:51:57;;;;;;;13.07;2.90;;;17.00;99.90;;;;;;4881193;28;85751;-77
2022/10/24 07:54:24;;;;;;;11.70;2.60;;;17.00;99.90;;;;;;4881168;28;87055;-76
2022/10/24 07:56:50;;;;;;;9.88;2.40;;;16.90;99.90;;;;;;4876800;28;87027;-76
2022/10/24 07:59:15;;;;;;;13.70;3.15;;;16.90;99.90;;;;;;4877746;28;88042;-74
2022/10/24 08:01:41;;;;;;;14.77;4.00;;;16.90;99.90;;;;;;4884262;28;86791;-77
2022/10/24 08:04:08;;;;;;;17.23;4.90;;;17.00;99.90;;;;;;4882539;28;87166;-77
2022/10/24 08:06:34;;;;;;;17.70;6.30;;;17.00;99.90;;;;;;4888741;28;87008;-76
2022/10/24 08:09:00;;;;;;;20.15;6.07;;;17.10;99.90;;;;;;4880066;28;87156;-75
2022/10/24 08:11:28;;;;;;;22.23;6.05;;;17.10;99.90;;;;;;4886365;28;86486;-76
2022/10/24 08:13:58;;;;;;;16.60;3.10;;;17.10;99.90;;;;;;4889735;28;86558;-78
2022/10/24 08:16:24;;;;;;;;;;;17.00;99.90;;;;;;4888373;28;87932;-77
2022/10/24 08:18:51;;;;;;;13.15;3.53;;;17.00;99.90;;;;;;4884098;28;87030;-75
2022/10/24 08:21:19;;;;;;;14.57;3.80;;;17.00;99.90;;;;;;4876831;28;86981;-78
2022/10/24 08:23:47;;;;;;;11.20;3.25;;;17.00;99.90;;;;;;4877579;28;90993;-76
2022/10/24 08:26:16;;;;;;;11.10;2.17;;;17.00;99.90;;;;;;4878781;28;87913;-77
2022/10/24 08:28:42;;;;;;;13.95;3.40;;;17.00;99.90;;;;;;4876247;28;86809;-78
2022/10/24 08:31:11;;;;;;;19.25;2.70;;;17.00;99.90;;;;;;4877935;28;86741;-76
2022/10/24 08:33:37;;;;;;;11.10;2.40;;;17.00;99.90;;;;;;4877799;28;87752;-75
2022/10/24 08:36:06;;;;;;;10.05;2.40;;;17.00;99.90;;;;;;4877696;28;86674;-75
2022/10/24 08:38:32;;;;;;;8.98;2.20;;;16.90;99.90;;;;;;4876367;28;86656;-78
2022/10/24 08:40:58;;;;;;;9.57;1.88;;;16.90;99.90;;;;;;4877136;28;85909;-77
2022/10/24 08:43:25;;;;;;;8.95;1.90;;;17.00;99.90;;;;;;4876957;28;87220;-78
2022/10/24 08:46:26;;;;;;;13.52;1.98;;;16.90;99.90;;;;;;4878338;28;87773;-76
2022/10/24 08:49:16;;;;;;;15.80;2.40;;;16.90;99.90;;;;;;4883413;28;88047;-75
2022/10/24 08:51:57;;;;;;;9.23;2.13;;;16.80;99.90;;;;;;4883223;28;86249;-75
2022/10/24 08:54:30;;;;;;;10.35;2.83;;;16.70;99.90;;;;;;4882342;28;87210;-76
2022/10/24 08:56:58;;;;;;;17.73;4.57;;;16.80;99.90;;;;;;4877256;28;86902;-77
2022/10/24 08:59:27;;;;;;;10.80;2.25;;;17.00;99.90;;;;;;4877701;28;86766;-77
2022/10/24 09:02:21;;;;;;;11.43;1.80;;;17.10;99.90;;;;;;4883656;28;86931;-78
2022/10/24 09:04:58;;;;;;;8.38;1.90;;;17.30;99.90;;;;;;4877132;28;87295;-76
2022/10/24 09:07:24;;;;;;;9.75;1.50;;;17.50;99.90;;;;;;4876582;28;90341;-77
2022/10/24 09:09:57;;;;;;;9.32;1.40;;;17.50;99.90;;;;;;4876344;28;86816;-76
2022/10/24 09:12:25;;;;;;;6.90;1.27;;;17.50;99.90;;;;;;4878443;28;87032;-77
2022/10/24 09:14:58;;;;;;;8.13;1.55;;;17.40;99.90;;;;;;4881033;28;89280;-76
2022/10/24 09:17:31;;;;;;;9.93;2.13;;;17.40;99.90;;;;;;4881651;28;86888;-76
2022/10/24 09:20:14;;;;;;;7.05;1.35;;;17.40;99.90;;;;;;4882402;28;87036;-77
2022/10/24 09:22:40;;;;;;;7.13;1.25;;;17.40;99.90;;;;;;4883352;28;86584;-78
2022/10/24 09:25:13;;;;;;;10.07;1.52;;;17.40;99.90;;;;;;4880533;28;87000;-78
2022/10/24 09:27:40;;;;;;;7.43;1.48;;;17.30;99.90;;;;;;4871037;28;87663;-77
2022/10/24 09:30:14;;;;;;;11.52;2.22;;;17.20;99.90;;;;;;4875759;28;86411;-75
2022/10/24 09:32:41;;;;;;;14.02;3.28;;;17.20;99.90;;;;;;4878393;28;86068;-77
2022/10/24 09:35:11;;;;;;;13.50;3.05;;;17.10;99.90;;;;;;4879925;28;87157;-77
2022/10/24 09:37:42;;;;;;;7.30;2.40;;;17.10;99.90;;;;;;4877896;28;86712;-75
2022/10/24 09:40:20;;;;;;;8.70;2.60;;;17.10;99.90;;;;;;4878583;28;88254;-76
2022/10/24 09:43:15;;;;;;;6.78;1.52;;;17.10;99.90;;;;;;4879791;28;86908;-77
2022/10/24 09:45:49;;;;;;;7.00;1.15;;;17.10;99.90;;;;;;4873875;28;87267;-76
2022/10/24 09:48:41;;;;;;;8.25;1.48;;;17.00;99.90;;;;;;4877258;28;86863;-76
2022/10/24 09:51:07;;;;;;;10.15;1.20;;;16.80;99.90;;;;;;4877609;28;86256;-77
2022/10/24 09:53:36;;;;;;;6.38;1.42;;;16.80;99.90;;;;;;4876029;28;87162;-76
2022/10/24 09:56:12;;;;;;;7.75;1.58;;;16.80;99.90;;;;;;4875813;28;88096;-75
2022/10/24 09:58:38;;;;;;;7.57;1.92;;;16.90;99.90;;;;;;4885115;28;86330;-76
2022/10/24 10:01:17;;;;;;;6.75;1.20;;;16.90;99.90;;;;;;4878000;28;88334;-77
2022/10/24 10:04:04;;;;;;;7.40;1.67;;;16.90;99.90;;;;;;4876941;28;86248;-76
2022/10/24 10:06:31;;;;;;;6.07;1.25;;;16.90;99.90;;;;;;4879688;28;88300;-78
2022/10/24 10:08:57;;;;;;;7.95;1.77;;;17.10;99.90;;;;;;4875833;28;87230;-76
2022/10/24 10:11:25;;;;;;;10.95;2.60;;;17.20;99.90;;;;;;4876885;28;86294;-76
2022/10/24 10:13:53;;;;;;;7.63;2.13;;;17.30;99.90;;;;;;4874433;28;86628;-77
2022/10/24 10:16:21;;;;;;;8.15;2.15;;;17.30;99.90;;;;;;4877525;28;86911;-77
2022/10/24 10:18:47;;;;;;;7.00;1.55;;;17.30;99.90;;;;;;4876508;28;86997;-76
2022/10/24 10:21:23;;;;;;;7.15;1.58;;;17.30;99.90;;;;;;4874804;28;86285;-77
2022/10/24 10:23:54;;;;;;;6.13;1.50;;;17.30;99.90;;;;;;4874184;28;86065;-78
2022/10/24 10:26:27;;;;;;;8.18;1.35;;;17.30;99.90;;;;;;4875207;28;89787;-76
2022/10/24 10:29:05;;;;;;;8.73;1.60;;;17.30;99.90;;;;;;4874632;28;87404;-75
2022/10/24 10:32:02;;;;;;;10.90;2.67;;;17.30;99.90;;;;;;4877506;28;88724;-76
2022/10/24 10:34:43;;;;;;;7.35;1.85;;;17.30;99.90;;;;;;4870912;28;86390;-76
2022/10/24 10:37:18;;;;;;;8.85;1.70;;;17.30;99.90;;;;;;4875559;28;87100;-75
2022/10/24 10:40:02;;;;;;;5.30;1.95;;;17.20;99.90;;;;;;4872409;28;87035;-77
2022/10/24 10:42:35;;;;;;;8.30;3.33;;;17.10;99.90;;;;;;4874090;28;86753;-76
2022/10/24 10:45:06;;;;;;;12.52;2.70;;;17.10;99.90;;;;;;4877208;28;86240;-75
2022/10/24 10:47:45;;;;;;;8.88;2.17;;;17.00;99.90;;;;;;4875015;28;87355;-77
2022/10/24 10:50:25;;;;;;;9.57;2.40;;;16.90;99.90;;;;;;4875186;28;86275;-76
2022/10/24 10:52:57;;;;;;;7.63;2.33;;;16.80;99.90;;;;;;4871901;28;87001;-76
2022/10/24 10:55:56;;;;;;;11.82;3.90;;;16.80;99.90;;;;;;4871699;28;89076;-77
2022/10/24 10:58:34;;;;;;;5.68;1.17;;;16.80;99.90;;;;;;4869078;28;88270;-77
2022/10/24 11:01:15;;;;;;;7.30;1.70;;;16.80;99.90;;;;;;4870254;28;87164;-75
2022/10/24 11:04:20;;;;;;;7.55;0.93;;;16.70;99.90;;;;;;4870280;28;86863;-76
2022/10/24 11:07:11;;;;;;;11.65;0.90;;;16.70;99.90;;;;;;4869860;28;87297;-76
2022/10/24 11:09:52;;;;;;;6.22;1.17;;;16.60;99.90;;;;;;4874464;28;88130;-76
2022/10/24 11:12:28;;;;;;;9.48;1.35;;;16.60;99.90;;;;;;4870324;28;86841;-73
2022/10/24 11:15:03;;;;;;;5.50;1.25;;;16.70;99.90;;;;;;4875384;28;86217;-72
2022/10/24 11:17:40;;;;;;;11.00;3.22;;;16.70;99.90;;;;;;4874667;28;85601;-71
2022/10/24 11:20:15;;;;;;;11.57;2.47;;;16.60;99.90;;;;;;4872915;28;86838;-72
2022/10/24 11:22:56;;;;;;;5.25;1.17;;;16.70;99.90;;;;;;4875534;28;86880;-73
2022/10/24 11:25:37;;;;;;;6.93;1.50;;;16.70;99.90;;;;;;4871733;28;88031;-71
2022/10/24 11:28:05;;;;;;;7.00;0.93;;;16.60;99.90;;;;;;4874606;28;86998;-72
2022/10/24 11:30:44;;;;;;;4.10;0.73;;;16.60;99.90;;;;;;4874720;28;87084;-72
2022/10/24 11:33:20;;;;;;;4.07;0.80;;;16.50;99.90;;;;;;4872831;28;87090;-72
2022/10/24 11:36:07;;;;;;;3.00;0.30;;;16.50;99.90;;;;;;4877585;28;86940;-71
2022/10/24 11:38:55;;;;;;;6.28;0.52;;;16.50;99.90;;;;;;4877038;28;87073;-72
2022/10/24 11:41:33;;;;;;;4.07;0.40;;;16.40;99.90;;;;;;4869188;28;86973;-72
2022/10/24 11:44:10;;;;;;;3.60;0.50;;;16.40;99.90;;;;;;4871647;28;86155;-73
2022/10/24 11:46:43;;;;;;;5.60;0.50;;;16.50;99.90;;;;;;4867838;28;87145;-72
2022/10/24 11:49:22;;;;;;;3.72;0.47;;;16.50;99.90;;;;;;4870650;28;86767;-73
2022/10/24 11:51:56;;;;;;;3.85;0.40;;;16.40;99.90;;;;;;4871632;28;88292;-72
2022/10/24 11:54:31;;;;;;;3.42;0.35;;;16.30;99.90;;;;;;4869152;28;87274;-71
2022/10/24 11:57:18;;;;;;;4.65;0.60;;;16.20;99.90;;;;;;4878094;28;86300;-72
2022/10/24 11:59:44;;;;;;;5.95;0.98;;;16.10;99.90;;;;;;4875859;28;86221;-72
2022/10/24 12:02:29;;;;;;;3.15;0.45;;;16.10;99.90;;;;;;4870693;28;88439;-72
2022/10/24 12:05:06;;;;;;;2.17;0.57;;;16.00;99.90;;;;;;4874545;28;86770;-72
2022/10/24 12:07:59;;;;;;;4.28;0.20;;;16.00;99.90;;;;;;4871905;28;86691;-72
2022/10/24 12:10:59;;;;;;;6.88;0.40;;;16.00;99.90;;;;;;4873474;28;85892;-72
2022/10/24 12:13:51;;;;;;;1.52;0.22;;;16.00;99.90;;;;;;4869681;28;87430;-72
2022/10/24 12:16:44;;;;;;;2.28;0.20;;;16.20;99.90;;;;;;4873509;28;87457;-73
2022/10/24 12:19:19;;;;;;;3.00;0.50;;;16.20;99.90;;;;;;4867832;28;87805;-73
2022/10/24 12:21:52;;;;;;;4.22;0.30;;;16.40;99.90;;;;;;4871518;28;86765;-72
2022/10/24 12:24:29;;;;;;;1.63;0.50;;;16.50;99.90;;;;;;4872595;28;87568;-71
2022/10/24 12:27:01;;;;;;;3.97;0.70;;;16.50;99.90;;;;;;4872145;28;88744;-72
2022/10/24 12:29:30;;;;;;;5.35;0.90;;;16.60;99.90;;;;;;4872518;28;87650;-73
2022/10/24 12:31:57;;;;;;;2.35;0.50;;;16.70;99.90;;;;;;4872322;28;86675;-73
2022/10/24 12:34:23;;;;;;;5.10;0.70;;;16.70;99.90;;;;;;4873909;28;86996;-73
2022/10/24 12:37:01;;;;;;;7.13;0.70;;;16.50;99.90;;;;;;4874316;28;86672;-72
2022/10/24 12:39:39;;;;;;;3.17;0.50;;;16.50;99.90;;;;;;4879233;28;86326;-73
2022/10/24 12:42:13;;;;;;;6.72;0.88;;;16.60;99.90;;;;;;4868480;28;86361;-72
2022/10/24 12:44:41;;;;;;;5.25;0.60;;;16.60;99.90;;;;;;4875648;28;87938;-72
2022/10/24 12:47:30;;;;;;;3.58;0.60;;;16.70;99.90;;;;;;4870572;28;87112;-72
2022/10/24 12:49:57;;;;;;;6.30;0.60;;;16.80;99.90;;;;;;4876656;28;86880;-73
2022/10/24 12:52:32;;;;;;;9.90;0.82;;;16.70;99.90;;;;;;4869873;28;88254;-73
2022/10/24 12:54:58;;;;;;;6.07;0.98;;;16.70;99.90;;;;;;4870532;28;87267;-72
2022/10/24 12:57:31;;;;;;;4.60;0.50;;;16.80;99.90;;;;;;4877348;28;86885;-72
2022/10/24 12:59:59;;;;;;;4.00;0.80;;;16.80;99.90;;;;;;4877307;28;86335;-72
2022/10/24 13:02:25;;;;;;;5.38;0.70;;;16.70;99.90;;;;;;4877563;28;86230;-72
2022/10/24 13:04:59;;;;;;;6.28;0.55;;;16.60;99.90;;;;;;4877363;28;87531;-73
2022/10/24 13:07:43;;;;;;;2.65;0.60;;;16.50;99.90;;;;;;4874336;28;87045;-72
2022/10/24 13:10:19;;;;;;;5.22;0.80;;;16.50;99.90;;;;;;4879055;28;87280;-72
2022/10/24 13:13:34;;;;;;;2.70;0.90;;;16.40;99.90;;;;;;4874759;28;87035;-73
2022/10/24 13:16:05;;;;;;;6.35;0.82;;;16.40;99.90;;;;;;4878756;28;87271;-73
2022/10/24 13:19:02;;;;;;;3.72;0.40;;;16.30;99.90;;;;;;4874699;28;87097;-71
2022/10/24 13:21:54;;;;;;;2.78;0.55;;;16.20;99.90;;;;;;4876204;28;87099;-73
2022/10/24 13:24:28;;;;;;;6.65;1.33;;;16.20;99.90;;;;;;4872610;28;87024;-73
2022/10/24 13:26:54;;;;;;;8.50;1.70;;;16.20;99.90;;;;;;4874718;28;87839;-72
2022/10/24 13:29:20;;;;;;;4.22;0.80;;;16.20;99.90;;;;;;4875207;28;86120;-72
2022/10/24 13:31:48;;;;;;;4.97;0.70;;;16.20;99.90;;;;;;4876293;28;86906;-72
2022/10/24 13:34:29;;;;;;;2.40;0.32;;;16.20;99.90;;;;;;4881164;28;87790;-72
2022/10/24 13:37:21;;;;;;;3.28;0.52;;;16.10;99.90;;;;;;4874997;28;89383;-72
2022/10/24 13:39:59;;;;;;;1.80;0.25;;;16.10;99.90;;;;;;4874211;28;87332;-70
2022/10/24 13:42:31;;;;;;;1.95;0.30;;;16.00;99.90;;;;;;4876836;28;86662;-72
2022/10/24 13:45:01;;;;;;;2.08;0.35;;;16.00;99.90;;;;;;4874804;28;87355;-72
2022/10/24 13:47:34;;;;;;;1.38;0.10;;;16.10;99.90;;;;;;4876403;28;87316;-73
2022/10/24 13:50:16;;;;;;;1.38;0.20;;;16.10;99.90;;;;;;4879789;28;86614;-72
2022/10/24 13:52:43;;;;;;;1.58;0.30;;;16.10;99.90;;;;;;4875867;28;86705;-71
2022/10/24 13:55:22;;;;;;;3.38;0.20;;;16.10;99.90;;;;;;4877962;28;85752;-71
2022/10/24 13:57:52;;;;;;;3.85;0.30;;;16.10;99.90;;;;;;4878589;28;87198;-73
2022/10/24 14:00:22;;;;;;;;;;;16.00;99.90;;;;;;4878860;28;86953;-73
2022/10/24 14:02:48;;;;;;;4.97;0.65;;;16.00;99.90;;;;;;4879150;28;87340;-73
2022/10/24 14:05:29;;;;;;;3.83;0.68;;;16.00;99.90;;;;;;4872584;28;87140;-73
2022/10/24 14:07:56;;;;;;;1.27;0.20;;;15.90;99.90;;;;;;4873268;28;88358;-73
2022/10/24 14:10:23;;;;;;;1.52;0.43;;;15.90;99.90;;;;;;4873215;28;87056;-73
2022/10/24 14:12:55;;;;;;;0.95;0.10;;;15.90;99.90;;;;;;4876100;28;86320;-72
2022/10/24 14:15:24;;;;;;;2.30;0.10;;;15.90;99.30;;;;;;4873851;28;86982;-72
2022/10/24 14:18:12;;;;;;;1.17;0.10;;;15.90;99.60;;;;;;4876546;28;87542;-72
2022/10/24 14:20:37;;;;;;;0.88;0.00;;;15.90;99.90;;;;;;4875006;28;87013;-72
2022/10/24 14:23:34;;;;;;;0.45;0.08;;;15.90;99.70;;;;;;4873682;28;86202;-73
2022/10/24 14:26:13;;;;;;;1.83;0.20;;;15.90;99.30;;;;;;4881200;28;87186;-72
2022/10/24 14:28:48;;;;;;;0.80;0.20;;;15.80;98.90;;;;;;4873406;28;87943;-71
2022/10/24 14:31:33;;;;;;;0.63;0.08;;;15.80;98.90;;;;;;4873142;28;89248;-72
2022/10/24 14:34:00;;;;;;;3.30;1.15;;;15.80;98.50;;;;;;4874183;28;88457;-73
2022/10/24 14:36:31;;;;;;;2.03;0.70;;;15.80;98.80;;;;;;4879202;28;86932;-73
2022/10/24 14:38:59;;;;;;;1.42;0.32;;;15.80;98.50;;;;;;4876898;28;86518;-72
2022/10/24 14:41:30;;;;;;;0.85;0.08;;;15.80;98.20;;;;;;4875678;28;87596;-73
2022/10/24 14:43:57;;;;;;;5.68;1.52;;;15.80;97.70;;;;;;4879706;28;86389;-73
2022/10/24 14:46:26;;;;;;;2.92;0.80;;;15.80;98.40;;;;;;4873692;28;85860;-72
2022/10/24 14:48:53;;;;;;;2.28;0.13;;;15.80;98.80;;;;;;4875038;28;86994;-73
2022/10/24 14:51:37;;;;;;;3.00;0.10;;;15.80;99.20;;;;;;4877293;28;86953;-73
2022/10/24 14:54:06;;;;;;;1.30;0.30;;;15.90;99.40;;;;;;4873040;28;87347;-73
2022/10/24 14:56:36;;;;;;;0.80;0.10;;;15.80;99.70;;;;;;4875528;28;87142;-71
2022/10/24 14:59:04;;;;;;;;;;;15.80;99.90;;;;;;4874233;28;86867;-73
2022/10/24 15:01:30;;;;;;;1.92;0.13;;;15.70;99.90;;;;;;4877069;28;86775;-73
2022/10/24 15:04:04;;;;;;;1.30;0.13;;;15.70;99.90;;;;;;4877582;28;87368;-72
2022/10/24 15:06:41;;;;;;;1.98;0.10;;;15.70;99.90;;;;;;4879933;28;86341;-72
2022/10/24 15:09:10;;;;;;;0.98;0.10;;;15.60;99.90;;;;;;4880721;28;86489;-72
2022/10/24 15:12:01;;;;;;;2.60;0.30;;;15.50;99.90;;;;;;4876671;28;86866;-72
2022/10/24 15:14:36;;;;;;;0.90;0.10;;;15.50;99.90;;;;;;4882033;28;86830;-72
2022/10/24 15:17:30;;;;;;;0.88;0.10;;;15.40;99.90;;;;;;4874658;28;87329;-73
2022/10/24 15:19:58;;;;;;;0.63;0.00;;;15.40;99.40;;;;;;4874520;28;88223;-72
2022/10/24 15:22:27;;;;;;;2.13;0.15;;;15.40;99.90;;;;;;4874339;28;87015;-72
2022/10/24 15:24:54;;;;;;;4.38;0.20;;;15.40;99.90;;;;;;4878876;28;87230;-72
2022/10/24 15:27:29;;;;;;;1.20;0.00;;;15.30;99.40;;;;;;4873950;28;86878;-71
2022/10/24 15:29:55;;;;;;;1.15;0.08;;;15.30;99.30;;;;;;4871942;28;88166;-73
2022/10/24 15:32:23;;;;;;;1.00;0.20;;;15.40;98.90;;;;;;4875286;28;86987;-72
2022/10/24 15:34:51;;;;;;;1.17;0.10;;;15.40;99.60;;;;;;4878855;28;86502;-73
2022/10/24 15:37:23;;;;;;;0.93;0.10;;;15.40;99.40;;;;;;4874489;28;88101;-72
2022/10/24 15:39:49;;;;;;;1.17;0.10;;;15.30;98.50;;;;;;4870929;28;87151;-73
2022/10/24 15:42:15;;;;;;;1.23;0.10;;;15.30;98.50;;;;;;4872745;28;86613;-72
2022/10/24 15:44:41;;;;;;;0.47;0.10;;;15.30;97.70;;;;;;4873607;28;87249;-72
2022/10/24 15:47:06;;;;;;;0.88;0.10;;;15.30;98.40;;;;;;4877846;28;86769;-73
2022/10/24 15:49:33;;;;;;;0.38;0.00;;;15.20;98.40;;;;;;4878272;28;87081;-73